KOVE/OVE METAR and TAF weather

Enter ICAO airport designator
Station Type Date Time Source
KOVE METAR 2023/12/04 18:53 UTC NOAA

KOVE 041853Z AUTO VRB04KT 10SM CLR 16/09 A3027 RMK AO2 SLP253 T01560094


Station Type Date Time Source
KOVE Decoded METAR 2023/12/04 18:53 UTC NOAA

OROVILLE MUNICIPAL AIRPORT, CA, United States (KOVE) 39-30N 121-37W 58M
Dec 04, 2023 - 01:53 PM EST / 2023.12.04 1853 UTC
Wind: Variable at 5 MPH (4 KT):0
Visibility: 10 mile(s):0
Sky conditions: clear
Temperature: 60.1 F (15.6 C)
Dew Point: 48.9 F (9.4 C)
Relative Humidity: 66%
Pressure (altimeter): 30.27 in. Hg (1025 hPa)
ob: KOVE 041853Z AUTO VRB04KT 10SM CLR 16/09 A3027 RMK AO2 SLP253 T01560094
cycle: 19

Station Type Date Time Source
KOVE TAF UTC NOAA

Error!

Example: see airport list